Time;durP1;ratioP1;P1;durP2;ratioP2;P2;SDS_P1;SDS_P2;PMS_P1;PMS_P2;Temp;Humidity;BMP_temperature;BMP_pressure;BME280_temperature;BME280_humidity;BME280_pressure;Samples;Min_cycle;Max_cycle;Signal;HPM_P1;HPM_P2
2023/12/05 00:01:37;;;;;;;35.42;21.10;;;1.90;99.90;;;;;;4933408;29;20115;-53
2023/12/05 00:04:04;;;;;;;34.35;22.08;;;1.90;99.90;;;;;;4933680;29;20141;-53
2023/12/05 00:06:29;;;;;;;37.20;20.42;;;1.90;99.90;;;;;;4933638;29;20467;-53
2023/12/05 00:08:55;;;;;;;30.73;19.70;;;1.90;99.90;;;;;;4932301;29;20063;-57
2023/12/05 00:11:21;;;;;;;37.75;21.77;;;2.00;99.90;;;;;;4933226;29;20032;-57
2023/12/05 00:13:46;;;;;;;389.58;210.82;;;2.00;99.90;;;;;;4933538;29;20027;-55
2023/12/05 00:16:12;;;;;;;55.90;32.92;;;2.00;99.90;;;;;;4933484;29;20032;-54
2023/12/05 00:18:37;;;;;;;54.88;32.63;;;2.10;99.90;;;;;;4933462;29;20028;-49
2023/12/05 00:21:04;;;;;;;38.13;22.67;;;2.00;99.90;;;;;;4932897;29;20039;-53
2023/12/05 00:23:29;;;;;;;37.50;20.52;;;2.00;99.90;;;;;;4933419;29;20107;-52
2023/12/05 00:25:55;;;;;;;40.95;21.08;;;2.00;99.90;;;;;;4933979;29;20028;-53
2023/12/05 00:28:20;;;;;;;35.88;22.02;;;2.00;99.90;;;;;;4933315;29;20331;-53
2023/12/05 00:30:45;;;;;;;34.10;21.75;;;2.00;99.90;;;;;;4915863;29;20035;-57
2023/12/05 00:33:11;;;;;;;37.90;21.60;;;1.90;99.90;;;;;;4933123;29;20027;-54
2023/12/05 00:35:36;;;;;;;38.20;21.17;;;1.90;99.90;;;;;;4933059;29;20055;-52
2023/12/05 00:38:02;;;;;;;35.22;20.75;;;1.90;99.90;;;;;;4932969;29;20475;-54
2023/12/05 00:40:29;;;;;;;36.28;21.85;;;1.80;99.90;;;;;;4932925;29;20024;-49
2023/12/05 00:42:58;;;;;;;37.00;22.40;;;1.80;99.90;;;;;;4933028;29;20399;-52
2023/12/05 00:45:24;;;;;;;34.63;22.23;;;1.80;99.90;;;;;;4931914;29;20403;-53
2023/12/05 00:47:53;;;;;;;36.70;22.88;;;1.90;99.90;;;;;;4933244;29;20031;-56
2023/12/05 00:50:19;;;;;;;36.72;21.42;;;1.90;99.90;;;;;;4932992;29;20114;-54
2023/12/05 00:52:45;;;;;;;38.50;22.38;;;1.90;99.90;;;;;;4932703;29;20447;-53
2023/12/05 00:55:11;;;;;;;36.13;22.48;;;1.90;99.90;;;;;;4933108;29;20086;-55
2023/12/05 00:57:37;;;;;;;32.40;20.45;;;2.00;99.90;;;;;;4932985;29;20390;-52
2023/12/05 01:00:05;;;;;;;36.67;21.90;;;2.00;99.90;;;;;;4932698;29;20083;-49
2023/12/05 01:02:30;;;;;;;36.47;21.52;;;2.00;99.90;;;;;;4931245;29;20032;-55
2023/12/05 01:04:56;;;;;;;40.63;23.10;;;2.10;99.90;;;;;;4932708;29;20035;-54
2023/12/05 01:07:21;;;;;;;38.15;22.40;;;2.10;99.90;;;;;;4932273;29;20150;-50
2023/12/05 01:09:48;;;;;;;36.60;23.25;;;2.10;99.90;;;;;;4930516;29;20387;-53
2023/12/05 01:12:13;;;;;;;37.35;22.63;;;2.00;99.90;;;;;;4932360;29;20396;-53
2023/12/05 01:14:39;;;;;;;41.05;23.42;;;2.00;99.90;;;;;;4932608;29;20106;-54
2023/12/05 01:17:04;;;;;;;36.28;22.17;;;2.00;99.90;;;;;;4933091;29;20074;-55
2023/12/05 01:19:31;;;;;;;38.92;22.60;;;1.90;99.90;;;;;;4932116;29;20024;-55
2023/12/05 01:21:56;;;;;;;40.53;22.73;;;1.90;99.90;;;;;;4932133;29;20078;-50
2023/12/05 01:24:22;;;;;;;35.22;21.60;;;1.80;99.90;;;;;;4932433;29;20027;-51
2023/12/05 01:26:48;;;;;;;37.67;21.88;;;1.80;99.90;;;;;;4915441;29;20399;-50
2023/12/05 01:29:14;;;;;;;40.70;23.00;;;1.80;99.90;;;;;;4932226;29;20040;-51
2023/12/05 01:31:39;;;;;;;38.40;21.38;;;1.80;99.90;;;;;;4931883;29;20036;-52
2023/12/05 01:34:05;;;;;;;39.45;23.60;;;1.90;99.90;;;;;;4932115;29;20028;-53
2023/12/05 01:36:30;;;;;;;42.13;24.33;;;1.90;99.90;;;;;;4932269;29;20031;-51
2023/12/05 01:38:56;;;;;;;34.10;21.77;;;2.10;99.90;;;;;;4932303;29;20491;-51
2023/12/05 01:41:22;;;;;;;39.33;23.38;;;2.10;99.90;;;;;;4931794;29;20077;-51
2023/12/05 01:43:47;;;;;;;37.80;23.45;;;2.10;99.90;;;;;;4932179;29;20066;-52
2023/12/05 01:46:13;;;;;;;37.95;23.13;;;2.10;99.90;;;;;;4932136;29;20059;-50
2023/12/05 01:48:39;;;;;;;38.63;23.08;;;2.20;99.90;;;;;;4932079;29;20114;-52
2023/12/05 01:51:06;;;;;;;36.42;21.58;;;2.20;99.90;;;;;;4914602;29;20490;-52
2023/12/05 01:53:35;;;;;;;36.38;22.52;;;2.20;99.90;;;;;;4915050;29;20028;-52
2023/12/05 01:56:03;;;;;;;34.15;20.88;;;2.20;99.90;;;;;;4931675;29;20112;-54
2023/12/05 01:58:31;;;;;;;40.67;23.23;;;2.30;99.90;;;;;;4931723;29;20027;-52
2023/12/05 02:00:57;;;;;;;39.40;24.05;;;2.20;99.90;;;;;;4914547;29;20027;-52
2023/12/05 02:03:22;;;;;;;34.85;21.45;;;2.30;99.90;;;;;;4931813;29;20031;-53
2023/12/05 02:05:48;;;;;;;36.85;21.05;;;2.30;99.90;;;;;;4931923;29;20031;-53
2023/12/05 02:08:19;;;;;;;34.85;21.52;;;2.40;99.90;;;;;;4931790;29;20026;-52
2023/12/05 02:10:44;;;;;;;35.35;22.40;;;2.40;99.90;;;;;;4931515;29;20020;-56
2023/12/05 02:13:10;;;;;;;36.50;21.70;;;2.40;99.90;;;;;;4931562;29;20169;-51
2023/12/05 02:15:36;;;;;;;34.80;22.10;;;2.50;99.90;;;;;;4931595;29;20487;-50
2023/12/05 02:18:14;;;;;;;35.70;22.25;;;2.50;99.90;;;;;;4931519;29;20028;-52
2023/12/05 02:20:54;;;;;;;37.22;22.50;;;2.60;99.90;;;;;;4913712;29;20078;-49
2023/12/05 02:23:35;;;;;;;31.50;19.45;;;2.60;99.90;;;;;;4931269;29;20105;-55
2023/12/05 02:26:22;;;;;;;36.50;22.10;;;2.70;99.90;;;;;;4931530;29;20042;-52
2023/12/05 02:28:49;;;;;;;31.85;20.20;;;2.70;99.90;;;;;;4931522;29;20466;-50
2023/12/05 02:31:14;;;;;;;33.70;21.45;;;2.70;99.90;;;;;;4913760;29;20498;-50
2023/12/05 02:33:40;;;;;;;30.23;20.30;;;2.70;99.90;;;;;;4931508;29;20040;-53
2023/12/05 02:36:44;;;;;;;34.47;20.98;;;2.90;99.90;;;;;;4931250;29;20085;-54
2023/12/05 02:39:22;;;;;;;32.03;21.23;;;3.00;99.90;;;;;;4891343;29;20029;-56
2023/12/05 02:41:53;;;;;;;31.58;19.13;;;3.00;99.90;;;;;;4891211;29;20032;-55
2023/12/05 02:44:20;;;;;;;30.38;18.48;;;2.90;99.90;;;;;;4914579;29;20039;-52
2023/12/05 02:46:48;;;;;;;29.73;18.00;;;2.90;99.90;;;;;;4931601;29;20039;-50
2023/12/05 02:49:14;;;;;;;26.13;16.55;;;3.00;99.90;;;;;;4931176;29;20043;-52
2023/12/05 02:51:41;;;;;;;27.17;16.42;;;3.00;99.90;;;;;;4930997;29;20522;-49
2023/12/05 02:54:06;;;;;;;22.63;15.90;;;3.10;99.90;;;;;;4931142;29;20104;-51
2023/12/05 02:56:35;;;;;;;29.48;16.42;;;3.20;99.90;;;;;;4914673;29;20026;-54
2023/12/05 02:59:02;;;;;;;24.80;15.50;;;3.20;99.90;;;;;;4914839;29;20032;-52
2023/12/05 03:01:27;;;;;;;23.95;15.38;;;3.30;99.90;;;;;;4931307;29;20024;-50
2023/12/05 03:03:53;;;;;;;24.77;15.60;;;3.30;99.90;;;;;;4931014;29;20094;-51
2023/12/05 03:06:18;;;;;;;23.38;15.23;;;3.40;99.90;;;;;;4913993;29;20418;-52
2023/12/05 03:08:44;;;;;;;23.92;15.80;;;3.40;99.90;;;;;;4929835;29;20480;-50
2023/12/05 03:11:09;;;;;;;24.65;14.38;;;3.40;99.90;;;;;;4930627;29;20066;-53
2023/12/05 03:13:39;;;;;;;21.45;14.95;;;3.50;99.90;;;;;;4931032;29;20050;-55
2023/12/05 03:16:05;;;;;;;22.15;14.15;;;3.50;99.90;;;;;;4930947;29;20032;-51
2023/12/05 03:18:30;;;;;;;23.20;14.35;;;3.50;99.90;;;;;;4930901;29;20118;-49
2023/12/05 03:20:56;;;;;;;19.13;13.77;;;3.60;99.90;;;;;;4929158;29;20170;-50
2023/12/05 03:23:21;;;;;;;22.77;14.20;;;3.60;99.90;;;;;;4913657;29;20483;-54
2023/12/05 03:25:47;;;;;;;18.60;13.40;;;3.60;99.90;;;;;;4931093;29;20031;-50
2023/12/05 03:28:12;;;;;;;18.65;13.27;;;3.70;99.90;;;;;;4930839;29;20491;-51
2023/12/05 03:30:38;;;;;;;18.45;14.15;;;3.70;99.90;;;;;;4930654;29;20031;-50
2023/12/05 03:33:03;;;;;;;21.77;13.48;;;3.70;99.90;;;;;;4932273;29;20447;-54
2023/12/05 03:35:29;;;;;;;24.92;14.65;;;3.70;99.90;;;;;;4932800;29;20024;-54
2023/12/05 03:37:54;;;;;;;22.05;14.00;;;3.70;99.90;;;;;;4916854;29;20031;-52
2023/12/05 03:40:20;;;;;;;19.70;13.18;;;3.70;99.90;;;;;;4916772;29;20482;-52
2023/12/05 03:42:46;;;;;;;22.27;13.85;;;3.70;99.90;;;;;;4933701;29;20058;-55
2023/12/05 03:45:11;;;;;;;20.70;12.30;;;3.70;99.90;;;;;;4933939;29;20032;-51
2023/12/05 03:47:37;;;;;;;25.13;13.88;;;3.80;99.90;;;;;;4933934;29;20063;-49
2023/12/05 03:50:02;;;;;;;19.27;13.85;;;3.80;99.90;;;;;;4933741;29;20555;-50
2023/12/05 03:52:28;;;;;;;22.90;13.13;;;3.90;99.90;;;;;;4933525;29;20031;-53
2023/12/05 03:54:53;;;;;;;21.02;12.95;;;3.90;99.90;;;;;;4934034;29;20086;-48
2023/12/05 03:57:19;;;;;;;20.10;13.45;;;4.00;99.90;;;;;;4933681;29;20063;-49
2023/12/05 03:59:46;;;;;;;16.38;11.45;;;4.00;99.90;;;;;;4933638;29;20032;-54
2023/12/05 04:02:12;;;;;;;17.50;11.82;;;3.90;99.90;;;;;;4933394;29;20016;-49
2023/12/05 04:04:37;;;;;;;16.20;11.45;;;3.90;99.90;;;;;;4932323;29;20031;-50
2023/12/05 04:07:03;;;;;;;19.13;12.68;;;3.90;99.90;;;;;;4933564;29;20055;-52
2023/12/05 04:09:28;;;;;;;20.83;12.07;;;3.90;99.90;;;;;;4933512;29;20483;-51
2023/12/05 04:11:54;;;;;;;16.73;12.35;;;3.90;99.90;;;;;;4933494;29;20506;-49
2023/12/05 04:14:19;;;;;;;16.45;11.32;;;3.90;99.90;;;;;;4932237;29;20043;-49
2023/12/05 04:16:45;;;;;;;16.83;11.30;;;3.90;99.90;;;;;;4932220;29;20514;-48
2023/12/05 04:19:10;;;;;;;16.73;11.73;;;3.90;99.90;;;;;;4932167;29;20024;-51
2023/12/05 04:21:36;;;;;;;20.98;12.98;;;4.00;99.90;;;;;;4932547;29;20040;-50
2023/12/05 04:24:01;;;;;;;19.23;11.70;;;4.00;99.90;;;;;;4933281;29;20028;-52
2023/12/05 04:26:27;;;;;;;22.73;13.10;;;4.00;99.90;;;;;;4934440;29;20568;-56
2023/12/05 04:28:52;;;;;;;18.02;11.82;;;4.00;99.90;;;;;;4934786;29;20027;-56
2023/12/05 04:31:18;;;;;;;18.50;11.40;;;4.10;99.90;;;;;;4934036;29;20049;-56
2023/12/05 04:33:44;;;;;;;22.45;12.27;;;4.00;99.90;;;;;;4934845;29;20043;-54
2023/12/05 04:36:10;;;;;;;16.60;11.35;;;4.10;99.90;;;;;;4917906;29;20483;-50
2023/12/05 04:38:37;;;;;;;18.45;11.80;;;4.10;99.90;;;;;;4933053;29;20028;-50
2023/12/05 04:41:03;;;;;;;19.70;12.05;;;4.20;99.90;;;;;;4932781;29;20047;-50
2023/12/05 04:43:30;;;;;;;16.20;10.95;;;4.20;99.90;;;;;;4932758;29;20047;-51
2023/12/05 04:45:56;;;;;;;15.82;11.57;;;4.20;99.90;;;;;;4932971;29;20107;-50
2023/12/05 04:48:21;;;;;;;17.23;12.80;;;4.20;99.90;;;;;;4932968;29;20353;-50
2023/12/05 04:50:47;;;;;;;18.42;11.65;;;4.30;99.90;;;;;;4931444;29;20449;-52
2023/12/05 04:53:13;;;;;;;16.05;11.18;;;4.30;99.90;;;;;;4958009;28;20075;-52
2023/12/05 04:55:38;;;;;;;21.38;12.00;;;4.30;99.90;;;;;;4940064;28;20023;-52
2023/12/05 04:58:04;;;;;;;17.38;11.05;;;4.30;99.90;;;;;;4953309;28;20098;-55
2023/12/05 05:00:29;;;;;;;17.10;12.60;;;4.30;99.90;;;;;;4971139;28;20035;-51
2023/12/05 05:02:55;;;;;;;16.67;11.20;;;4.30;99.90;;;;;;4971039;28;20023;-56
2023/12/05 05:05:20;;;;;;;20.40;11.60;;;4.30;99.90;;;;;;4954069;28;20019;-54
2023/12/05 05:07:46;;;;;;;16.98;11.75;;;4.30;99.90;;;;;;4953167;28;20062;-57
2023/12/05 05:10:11;;;;;;;15.30;11.15;;;4.30;99.90;;;;;;4941390;28;20077;-55
2023/12/05 05:12:37;;;;;;;15.45;10.73;;;4.30;99.90;;;;;;4970838;28;20565;-52
2023/12/05 05:15:02;;;;;;;15.27;10.25;;;4.40;99.90;;;;;;4961175;28;20118;-53
2023/12/05 05:17:28;;;;;;;19.42;11.98;;;4.40;99.90;;;;;;4934465;29;20122;-56
2023/12/05 05:19:54;;;;;;;16.60;11.07;;;4.40;99.90;;;;;;4951714;28;20032;-50
2023/12/05 05:22:19;;;;;;;18.48;12.20;;;4.40;99.90;;;;;;4951355;28;20077;-52
2023/12/05 05:24:45;;;;;;;17.42;10.85;;;4.40;99.90;;;;;;4951650;28;20192;-52
2023/12/05 05:27:11;;;;;;;14.25;11.50;;;4.40;99.90;;;;;;4961300;28;20035;-54
2023/12/05 05:29:37;;;;;;;16.33;11.10;;;4.40;99.90;;;;;;4970859;28;20491;-51
2023/12/05 05:32:03;;;;;;;15.15;10.82;;;4.40;99.90;;;;;;4970573;28;20031;-52
2023/12/05 05:34:29;;;;;;;15.52;10.32;;;4.40;99.90;;;;;;4945317;28;20033;-55
2023/12/05 05:36:54;;;;;;;13.57;9.43;;;4.50;99.90;;;;;;4962123;28;20039;-51
2023/12/05 05:39:20;;;;;;;15.20;10.90;;;4.50;99.90;;;;;;4951553;28;20148;-55
2023/12/05 05:41:46;;;;;;;14.30;10.25;;;4.50;99.90;;;;;;4966039;28;20115;-51
2023/12/05 05:44:11;;;;;;;12.15;9.13;;;4.50;99.90;;;;;;4970805;28;20065;-52
2023/12/05 05:46:37;;;;;;;14.35;9.27;;;4.50;99.90;;;;;;4970638;28;20030;-52
2023/12/05 05:49:02;;;;;;;13.57;9.35;;;4.60;99.90;;;;;;4970661;28;20026;-53
2023/12/05 05:51:28;;;;;;;13.35;9.45;;;4.60;99.90;;;;;;4970204;28;20046;-53
2023/12/05 05:53:55;;;;;;;12.82;9.07;;;4.60;99.90;;;;;;4956026;28;20114;-55
2023/12/05 05:56:22;;;;;;;14.30;8.35;;;4.60;99.90;;;;;;4951091;29;20031;-55
2023/12/05 05:58:47;;;;;;;10.80;9.10;;;4.60;99.90;;;;;;4951083;29;20038;-50
2023/12/05 06:01:13;;;;;;;12.52;8.73;;;4.60;99.90;;;;;;4935981;28;20043;-54
2023/12/05 06:03:40;;;;;;;12.85;9.15;;;4.60;99.90;;;;;;4942410;28;20452;-55
2023/12/05 06:06:06;;;;;;;13.45;8.40;;;4.60;99.90;;;;;;4970588;28;20490;-54
2023/12/05 06:08:32;;;;;;;18.10;8.75;;;4.60;99.90;;;;;;4957388;28;20031;-53
2023/12/05 06:10:58;;;;;;;14.90;8.57;;;;;;;;;;4950779;29;20038;-52
2023/12/05 06:13:23;;;;;;;9.13;7.65;;;4.70;99.90;;;;;;4951015;29;20031;-55
2023/12/05 06:15:49;;;;;;;12.10;8.40;;;4.70;99.90;;;;;;4951323;29;20522;-53
2023/12/05 06:18:17;;;;;;;14.90;8.70;;;4.70;99.90;;;;;;4934211;29;20033;-51
2023/12/05 06:20:43;;;;;;;17.13;8.38;;;4.70;99.90;;;;;;4946474;28;20062;-52
2023/12/05 06:23:09;;;;;;;16.58;8.57;;;4.60;99.90;;;;;;4970428;28;20054;-50
2023/12/05 06:25:35;;;;;;;12.57;8.50;;;4.70;99.90;;;;;;4960147;23;20482;-46
2023/12/05 06:28:00;;;;;;;9.05;7.75;;;4.60;99.90;;;;;;4942387;29;20544;-46
2023/12/05 06:30:26;;;;;;;13.77;9.13;;;4.60;99.90;;;;;;4945240;29;20088;-48
2023/12/05 06:32:52;;;;;;;15.52;8.25;;;4.60;99.90;;;;;;4947949;28;20055;-47
2023/12/05 06:35:17;;;;;;;14.38;8.80;;;4.60;99.90;;;;;;4950704;29;20067;-47
2023/12/05 06:37:43;;;;;;;14.65;8.82;;;4.70;99.90;;;;;;4940107;28;20035;-48
2023/12/05 06:40:09;;;;;;;14.07;9.05;;;4.70;99.90;;;;;;4941814;29;20054;-51
2023/12/05 06:42:35;;;;;;;17.20;8.90;;;4.70;99.90;;;;;;4949267;29;20023;-50
2023/12/05 06:45:01;;;;;;;12.93;8.57;;;4.70;99.90;;;;;;4949703;28;20031;-47
2023/12/05 06:47:27;;;;;;;14.80;8.13;;;4.70;99.90;;;;;;4943327;28;20442;-50
2023/12/05 06:49:52;;;;;;;17.70;8.75;;;4.80;99.90;;;;;;4950339;28;20020;-49
2023/12/05 06:52:19;;;;;;;13.88;9.25;;;4.80;99.90;;;;;;4950212;28;20051;-45
2023/12/05 06:54:45;;;;;;;11.07;8.38;;;4.80;99.90;;;;;;4950262;28;20030;-45
2023/12/05 06:57:11;;;;;;;11.75;8.68;;;4.80;99.90;;;;;;4950167;28;20019;-49
2023/12/05 06:59:37;;;;;;;10.82;7.93;;;4.80;99.90;;;;;;4950356;28;20073;-51
2023/12/05 07:02:02;;;;;;;11.63;7.57;;;4.80;99.90;;;;;;4950135;28;20027;-47
2023/12/05 07:04:28;;;;;;;14.73;8.40;;;4.90;99.90;;;;;;4949024;29;20533;-48
2023/12/05 07:06:53;;;;;;;15.10;7.60;;;4.90;99.90;;;;;;4953594;28;20434;-49
2023/12/05 07:09:20;;;;;;;14.43;8.38;;;4.90;99.90;;;;;;4953540;28;20122;-49
2023/12/05 07:11:45;;;;;;;11.52;8.27;;;4.90;99.90;;;;;;4953343;28;20106;-48
2023/12/05 07:14:13;;;;;;;10.88;8.55;;;4.90;99.90;;;;;;4953721;28;20110;-46
2023/12/05 07:16:38;;;;;;;12.00;7.47;;;4.90;99.90;;;;;;4953499;28;20065;-49
2023/12/05 07:19:04;;;;;;;13.38;8.18;;;5.10;99.90;;;;;;4953589;28;20055;-48
2023/12/05 07:21:30;;;;;;;15.05;7.78;;;4.90;99.90;;;;;;4953122;28;20323;-49
2023/12/05 07:23:56;;;;;;;14.50;7.97;;;5.00;99.90;;;;;;4952341;29;20457;-47
2023/12/05 07:26:21;;;;;;;10.98;8.15;;;5.00;99.90;;;;;;4953071;28;20158;-46
2023/12/05 07:28:48;;;;;;;12.02;8.27;;;;;;;;;;4953282;28;20039;-50
2023/12/05 07:31:13;;;;;;;12.80;8.05;;;5.20;99.90;;;;;;4953166;28;20069;-48
2023/12/05 07:33:39;;;;;;;9.82;6.90;;;5.10;99.90;;;;;;4953357;28;20059;-49
2023/12/05 07:36:05;;;;;;;11.27;6.82;;;5.00;99.90;;;;;;4953032;28;20110;-52
2023/12/05 07:38:31;;;;;;;13.32;7.72;;;5.00;99.90;;;;;;4953406;28;20031;-49
2023/12/05 07:40:56;;;;;;;10.60;7.53;;;5.10;99.90;;;;;;4952844;28;20410;-50
2023/12/05 07:43:22;;;;;;;8.57;6.68;;;5.00;99.90;;;;;;4953584;28;20112;-48
2023/12/05 07:45:47;;;;;;;13.57;7.85;;;5.10;99.90;;;;;;4953127;28;20110;-48
2023/12/05 07:48:13;;;;;;;14.45;6.93;;;5.10;99.90;;;;;;4953105;28;20023;-50
2023/12/05 07:50:38;;;;;;;12.40;7.28;;;5.00;99.90;;;;;;4952930;28;20402;-52
2023/12/05 07:53:04;;;;;;;13.18;7.07;;;5.00;99.90;;;;;;4951958;29;20118;-49
2023/12/05 07:55:29;;;;;;;14.23;7.35;;;5.10;99.90;;;;;;4952915;28;20026;-49
2023/12/05 07:57:55;;;;;;;13.75;7.68;;;5.10;99.90;;;;;;4952860;28;20375;-47
2023/12/05 08:00:20;;;;;;;11.95;6.18;;;5.10;99.90;;;;;;4953281;28;20051;-47
2023/12/05 08:02:47;;;;;;;15.25;7.35;;;5.10;99.90;;;;;;4952666;28;20019;-47
2023/12/05 08:05:13;;;;;;;10.43;6.75;;;5.10;99.90;;;;;;4953572;28;20030;-49
2023/12/05 08:07:39;;;;;;;7.85;5.95;;;5.10;99.90;;;;;;4951480;28;20023;-47
2023/12/05 08:10:08;;;;;;;9.27;5.82;;;5.20;99.90;;;;;;4952864;28;20061;-47
2023/12/05 08:12:35;;;;;;;9.52;5.55;;;5.20;99.90;;;;;;4952566;28;20106;-51
2023/12/05 08:15:01;;;;;;;7.95;5.60;;;5.20;99.90;;;;;;4952564;28;20030;-47
2023/12/05 08:17:26;;;;;;;9.40;5.60;;;5.30;99.90;;;;;;4952892;28;20089;-48
2023/12/05 08:19:55;;;;;;;6.97;5.43;;;5.40;99.90;;;;;;4952687;28;20118;-50
2023/12/05 08:22:21;;;;;;;8.55;6.32;;;5.50;99.90;;;;;;4952351;28;20027;-45
2023/12/05 08:24:47;;;;;;;10.98;6.72;;;5.50;99.90;;;;;;4952749;28;20050;-47
2023/12/05 08:27:13;;;;;;;11.20;6.00;;;5.50;99.90;;;;;;4952470;28;20509;-48
2023/12/05 08:29:39;;;;;;;12.07;6.20;;;5.50;99.90;;;;;;4952603;28;20490;-49
2023/12/05 08:32:11;;;;;;;7.90;5.85;;;;;;;;;;4952518;28;20402;-48
2023/12/05 08:34:47;;;;;;;14.98;5.63;;;;;;;;;;4952505;28;20434;-48
2023/12/05 08:37:15;;;;;;;7.18;5.22;;;;;;;;;;4952410;29;20081;-50
2023/12/05 08:39:41;;;;;;;14.27;5.57;;;;;;;;;;4951217;29;20032;-46
2023/12/05 08:42:07;;;;;;;8.55;4.50;;;5.70;99.90;;;;;;4951905;29;20024;-49
2023/12/05 08:44:32;;;;;;;7.65;4.18;;;5.80;99.90;;;;;;4952514;28;20023;-47
2023/12/05 08:46:58;;;;;;;5.63;4.28;;;5.90;99.90;;;;;;4944477;28;20718;-47
2023/12/05 08:49:23;;;;;;;10.88;4.72;;;5.90;99.90;;;;;;4943267;29;20043;-47
2023/12/05 08:51:49;;;;;;;6.82;3.92;;;6.00;99.90;;;;;;4937328;29;20023;-52
2023/12/05 08:54:14;;;;;;;6.78;4.10;;;6.00;99.90;;;;;;4933054;29;20031;-50
2023/12/05 08:56:40;;;;;;;11.80;4.05;;;6.10;99.90;;;;;;4931398;29;20081;-50
2023/12/05 08:59:06;;;;;;;8.15;3.70;;;6.10;99.90;;;;;;4937315;29;20043;-49
2023/12/05 09:01:32;;;;;;;5.82;3.88;;;6.10;99.90;;;;;;4944462;29;20032;-49
2023/12/05 09:03:57;;;;;;;5.63;3.35;;;6.10;99.90;;;;;;4945532;29;20098;-51
2023/12/05 09:06:23;;;;;;;5.57;3.67;;;6.00;99.90;;;;;;4951570;28;20038;-47
2023/12/05 09:08:49;;;;;;;4.53;2.92;;;6.10;99.90;;;;;;4941819;28;20102;-48
2023/12/05 09:11:14;;;;;;;6.03;3.75;;;6.20;99.90;;;;;;4946953;28;20158;-47
2023/12/05 09:13:40;;;;;;;4.57;3.10;;;6.20;99.90;;;;;;4932746;29;20406;-50
2023/12/05 09:16:05;;;;;;;3.13;2.55;;;6.30;99.90;;;;;;4938926;29;20034;-47
2023/12/05 09:18:31;;;;;;;6.10;2.90;;;6.30;99.90;;;;;;4950860;29;20042;-47
2023/12/05 09:20:57;;;;;;;6.28;3.08;;;6.30;99.90;;;;;;4951379;28;20027;-49
2023/12/05 09:23:23;;;;;;;4.95;2.78;;;6.40;99.90;;;;;;4939078;28;20506;-47
2023/12/05 09:25:48;;;;;;;11.23;3.53;;;6.40;99.90;;;;;;4932256;29;20046;-46
2023/12/05 09:28:14;;;;;;;4.97;2.65;;;6.40;99.90;;;;;;4932378;29;20036;-54
2023/12/05 09:30:40;;;;;;;5.30;3.03;;;6.40;99.90;;;;;;4931822;29;20039;-47
2023/12/05 09:33:05;;;;;;;3.28;2.50;;;6.30;99.90;;;;;;4932382;29;20032;-46
2023/12/05 09:35:31;;;;;;;4.28;2.67;;;6.40;99.90;;;;;;4943343;29;20042;-52
2023/12/05 09:37:56;;;;;;;4.28;2.72;;;6.50;99.90;;;;;;4951456;28;20070;-48
2023/12/05 09:40:22;;;;;;;5.05;2.13;;;6.50;99.90;;;;;;4951239;28;20030;-47
2023/12/05 09:42:49;;;;;;;5.57;2.03;;;6.50;99.90;;;;;;4950806;28;20024;-47
2023/12/05 09:45:15;;;;;;;2.67;2.25;;;6.40;99.90;;;;;;4951348;28;20114;-44
2023/12/05 09:47:46;;;;;;;4.75;2.42;;;6.50;99.90;;;;;;4952123;28;20035;-51
2023/12/05 09:50:12;;;;;;;3.72;1.77;;;6.50;99.90;;;;;;4948264;28;20038;-47
2023/12/05 09:52:38;;;;;;;5.03;2.42;;;6.50;99.90;;;;;;4951222;28;20035;-46
2023/12/05 09:55:04;;;;;;;7.53;2.47;;;6.50;99.90;;;;;;4950646;28;20134;-51
2023/12/05 09:57:30;;;;;;;4.20;2.90;;;6.50;99.90;;;;;;4950646;29;20193;-47
2023/12/05 09:59:55;;;;;;;4.72;2.35;;;6.50;99.90;;;;;;4951159;28;20153;-52
2023/12/05 10:02:23;;;;;;;2.83;2.28;;;6.60;99.90;;;;;;4950825;28;20110;-45
2023/12/05 10:04:54;;;;;;;5.57;2.53;;;6.60;99.90;;;;;;4950421;28;20042;-49
2023/12/05 10:07:21;;;;;;;11.05;3.00;;;6.60;99.90;;;;;;4950836;28;20026;-50
2023/12/05 10:09:50;;;;;;;4.78;2.13;;;6.60;99.90;;;;;;4950846;28;20483;-51
2023/12/05 10:12:15;;;;;;;5.82;2.40;;;6.70;99.90;;;;;;4950864;28;20047;-46
2023/12/05 10:14:41;;;;;;;4.18;2.90;;;6.70;99.90;;;;;;4938222;29;20070;-45
2023/12/05 10:17:07;;;;;;;7.45;2.28;;;6.70;99.90;;;;;;4932025;29;20028;-50
2023/12/05 10:19:34;;;;;;;3.75;2.47;;;6.70;99.90;;;;;;4930395;29;20020;-48
2023/12/05 10:22:01;;;;;;;3.33;2.20;;;6.70;99.90;;;;;;4934015;29;20398;-47
2023/12/05 10:24:54;;;;;;;5.97;2.33;;;6.70;99.90;;;;;;4950843;28;20050;-46
2023/12/05 10:27:19;;;;;;;8.05;2.70;;;6.70;99.90;;;;;;4949082;28;20050;-46
2023/12/05 10:29:45;;;;;;;15.25;8.60;;;6.80;99.90;;;;;;4950743;28;20027;-48
2023/12/05 10:32:12;;;;;;;12.40;5.95;;;6.70;99.90;;;;;;4950427;28;20031;-51
2023/12/05 10:34:59;;;;;;;6.88;3.97;;;6.70;99.90;;;;;;4951131;28;20436;-46
2023/12/05 10:37:31;;;;;;;4.68;2.55;;;6.80;99.90;;;;;;4947096;28;20028;-43
2023/12/05 10:39:58;;;;;;;11.63;2.85;;;6.70;99.90;;;;;;4932532;29;20090;-46
2023/12/05 10:42:28;;;;;;;5.15;2.33;;;6.80;99.90;;;;;;4940135;29;20482;-45
2023/12/05 10:44:54;;;;;;;5.10;2.78;;;6.90;99.90;;;;;;4956461;28;20088;-44
2023/12/05 10:47:20;;;;;;;3.42;2.38;;;6.90;99.90;;;;;;4956678;29;20490;-49
2023/12/05 10:49:47;;;;;;;5.63;2.75;;;6.90;99.90;;;;;;4952922;28;20081;-51
2023/12/05 10:52:14;;;;;;;5.47;2.38;;;6.90;99.90;;;;;;4956719;28;20034;-46
2023/12/05 10:54:40;;;;;;;4.38;3.15;;;6.90;99.90;;;;;;4957275;28;20023;-51
2023/12/05 10:57:09;;;;;;;7.07;2.40;;;7.00;99.90;;;;;;4956168;28;20043;-47
2023/12/05 10:59:42;;;;;;;2.88;2.35;;;7.00;99.90;;;;;;4957086;28;20057;-46
2023/12/05 11:02:14;;;;;;;13.35;3.65;;;7.10;99.90;;;;;;4967832;28;20025;-50
2023/12/05 11:04:43;;;;;;;2.63;1.83;;;7.20;99.90;;;;;;4995304;28;20040;-47
2023/12/05 11:07:10;;;;;;;2.88;2.33;;;7.20;99.90;;;;;;5011862;28;20032;-49
2023/12/05 11:09:35;;;;;;;3.83;1.67;;;7.40;99.90;;;;;;5019736;28;20028;-46
2023/12/05 11:12:04;;;;;;;3.58;1.52;;;7.40;99.90;;;;;;4966802;28;20032;-49
2023/12/05 11:14:37;;;;;;;2.20;2.00;;;7.50;99.90;;;;;;4937676;29;20039;-48
2023/12/05 11:17:05;;;;;;;4.43;1.95;;;7.50;99.90;;;;;;4935979;29;20027;-50
2023/12/05 11:19:52;;;;;;;4.60;1.83;;;7.50;99.90;;;;;;4937375;29;20032;-52
2023/12/05 11:22:40;;;;;;;6.50;2.10;;;7.50;99.90;;;;;;4937284;29;20498;-43
2023/12/05 11:25:16;;;;;;;2.97;1.58;;;7.50;99.90;;;;;;4937303;29;20502;-48
2023/12/05 11:28:07;;;;;;;5.10;1.83;;;7.40;99.90;;;;;;4957670;28;20037;-49
2023/12/05 11:30:52;;;;;;;2.35;1.40;;;7.40;99.90;;;;;;4991922;28;20540;-49
2023/12/05 11:33:46;;;;;;;2.38;1.73;;;7.40;99.90;;;;;;4961540;28;20061;-52
2023/12/05 11:36:36;;;;;;;3.40;1.63;;;7.30;99.90;;;;;;4948564;28;20031;-46
2023/12/05 11:39:03;;;;;;;4.20;2.08;;;7.30;99.90;;;;;;5024488;28;20108;-47
2023/12/05 11:41:29;;;;;;;2.78;1.70;;;7.20;99.90;;;;;;5033649;28;20018;-53
2023/12/05 11:44:17;;;;;;;4.93;1.67;;;7.20;99.90;;;;;;4957209;28;20033;-51
2023/12/05 11:46:44;;;;;;;8.10;3.17;;;7.20;99.90;;;;;;4956435;28;20027;-49
2023/12/05 11:49:09;;;;;;;78.25;39.50;;;7.20;99.90;;;;;;4956533;28;20031;-49
2023/12/05 11:51:36;;;;;;;4.35;2.75;;;7.20;99.90;;;;;;4955169;28;20110;-46
2023/12/05 11:54:08;;;;;;;5.45;2.08;;;7.20;99.90;;;;;;4953587;28;20027;-47
2023/12/05 11:56:34;;;;;;;3.47;1.80;;;7.20;99.90;;;;;;4952865;28;20035;-50
2023/12/05 11:59:12;;;;;;;6.30;2.00;;;7.20;99.90;;;;;;4953145;28;20070;-51
2023/12/05 12:01:37;;;;;;;3.00;1.77;;;7.10;99.90;;;;;;4952909;28;20027;-47
2023/12/05 12:04:19;;;;;;;4.72;2.28;;;7.10;99.90;;;;;;4952979;28;20026;-48
2023/12/05 12:06:47;;;;;;;4.03;1.70;;;7.20;99.90;;;;;;4952949;28;20027;-48
2023/12/05 12:09:12;;;;;;;3.40;1.80;;;7.20;99.90;;;;;;4952776;28;20446;-47
2023/12/05 12:11:38;;;;;;;3.65;1.65;;;7.20;99.90;;;;;;4941560;28;20119;-46
2023/12/05 12:14:15;;;;;;;1.65;1.55;;;7.20;99.90;;;;;;4949175;29;20053;-48
2023/12/05 12:16:40;;;;;;;1.92;1.52;;;7.20;99.90;;;;;;4952208;28;20093;-47
2023/12/05 12:19:11;;;;;;;2.75;1.58;;;7.20;99.90;;;;;;4952898;28;20027;-46
2023/12/05 12:21:40;;;;;;;2.78;1.60;;;7.20;99.90;;;;;;4949464;29;20478;-46
2023/12/05 12:24:19;;;;;;;2.38;1.83;;;7.20;99.90;;;;;;4952591;28;20027;-47
2023/12/05 12:26:56;;;;;;;4.07;1.70;;;7.30;99.90;;;;;;4982176;22;20627;-60
2023/12/05 12:29:22;;;;;;;2.38;1.80;;;7.30;99.90;;;;;;4967365;28;20049;-59
2023/12/05 12:31:48;;;;;;;3.30;1.60;;;7.30;99.90;;;;;;4952400;29;20034;-56
2023/12/05 12:34:25;;;;;;;3.70;1.73;;;7.30;99.90;;;;;;4952347;29;20449;-59
2023/12/05 12:36:51;;;;;;;1.98;1.77;;;7.30;99.90;;;;;;4946235;28;20599;-58
2023/12/05 12:39:18;;;;;;;2.47;1.83;;;7.30;99.90;;;;;;4971766;28;20513;-57
2023/12/05 12:41:45;;;;;;;3.95;1.90;;;7.30;99.90;;;;;;4971473;28;20029;-56
2023/12/05 12:44:13;;;;;;;4.97;2.80;;;7.30;99.90;;;;;;4971529;28;20019;-59
2023/12/05 12:46:39;;;;;;;3.28;1.67;;;7.30;99.90;;;;;;4971951;28;20102;-59
2023/12/05 12:49:06;;;;;;;4.90;1.83;;;7.30;99.90;;;;;;4971975;28;20041;-59